createdAt,value
2023-02-15T00:02:02.131Z,3.13
2023-02-15T00:04:47.059Z,2.80
2023-02-15T00:07:16.316Z,3.00
2023-02-15T00:09:43.448Z,2.78
2023-02-15T00:12:11.254Z,2.78
2023-02-15T00:14:38.211Z,3.42
2023-02-15T00:17:05.298Z,3.83
2023-02-15T00:19:32.145Z,3.13
2023-02-15T00:21:59.058Z,3.75
2023-02-15T00:24:26.324Z,3.17
2023-02-15T00:26:53.209Z,2.75
2023-02-15T00:29:21.007Z,3.33
2023-02-15T00:31:49.166Z,3.47
2023-02-15T00:34:25.148Z,3.20
2023-02-15T00:36:52.512Z,3.45
2023-02-15T00:39:19.922Z,2.45
2023-02-15T00:41:47.776Z,2.63
2023-02-15T00:44:15.861Z,3.45
2023-02-15T00:46:42.944Z,3.08
2023-02-15T00:49:10.688Z,3.53
2023-02-15T00:51:38.577Z,5.03
2023-02-15T00:54:05.931Z,2.83
2023-02-15T00:56:32.837Z,3.40
2023-02-15T00:58:59.695Z,2.72
2023-02-15T01:01:26.873Z,3.22
2023-02-15T01:03:54.057Z,3.38
2023-02-15T01:06:21.003Z,2.63
2023-02-15T01:08:48.015Z,2.28
2023-02-15T01:11:24.798Z,2.58
2023-02-15T01:13:54.256Z,1.63
2023-02-15T01:16:22.052Z,3.10
2023-02-15T01:18:49.339Z,2.95
2023-02-15T01:21:23.093Z,1.90
2023-02-15T01:23:50.415Z,2.92
2023-02-15T01:26:17.550Z,3.00
2023-02-15T01:28:45.140Z,2.35
2023-02-15T01:31:15.279Z,3.10
2023-02-15T01:33:43.031Z,2.38
2023-02-15T01:36:10.728Z,2.90
2023-02-15T01:38:40.882Z,2.67
2023-02-15T01:41:24.177Z,2.85
2023-02-15T01:44:01.076Z,2.22
2023-02-15T01:46:33.532Z,2.42
2023-02-15T01:49:11.424Z,3.28
2023-02-15T01:51:40.770Z,2.40
2023-02-15T01:54:16.305Z,2.67
2023-02-15T01:56:43.337Z,2.83
2023-02-15T01:59:17.877Z,3.17
2023-02-15T02:01:45.499Z,3.33
2023-02-15T02:04:32.333Z,3.00
2023-02-15T02:07:00.441Z,3.55
2023-02-15T02:09:27.900Z,2.60
2023-02-15T02:11:55.456Z,2.55
2023-02-15T02:14:23.839Z,3.00
2023-02-15T02:16:58.104Z,2.17
2023-02-15T02:19:55.829Z,2.20
2023-02-15T02:26:11.295Z,2.03
2023-02-15T02:29:18.896Z,1.67
2023-02-15T02:32:13.099Z,2.53
2023-02-15T02:34:44.519Z,1.95
2023-02-15T02:37:33.956Z,2.17
2023-02-15T02:40:48.217Z,2.75
2023-02-15T02:43:23.540Z,2.60
2023-02-15T02:46:01.974Z,2.70
2023-02-15T02:48:33.108Z,1.90
2023-02-15T02:51:00.400Z,2.30
2023-02-15T02:53:31.106Z,2.22
2023-02-15T02:56:04.417Z,2.50
2023-02-15T02:59:19.557Z,1.63
2023-02-15T03:02:00.222Z,2.45
2023-02-15T03:04:36.348Z,2.55
2023-02-15T03:07:08.763Z,2.33
2023-02-15T03:09:46.035Z,1.70
2023-02-15T03:12:18.714Z,1.55
2023-02-15T03:15:02.866Z,2.03
2023-02-15T03:17:34.798Z,1.90
2023-02-15T03:20:19.951Z,2.67
2023-02-15T03:22:51.952Z,2.28
2023-02-15T03:25:23.808Z,2.45
2023-02-15T03:27:59.484Z,2.20
2023-02-15T03:30:28.562Z,1.50
2023-02-15T03:32:58.885Z,2.35
2023-02-15T03:35:30.253Z,2.60
2023-02-15T03:38:01.791Z,2.30
2023-02-15T03:40:58.332Z,1.88
2023-02-15T03:43:50.858Z,2.53
2023-02-15T03:47:07.973Z,2.95
2023-02-15T03:49:54.450Z,3.08
2023-02-15T03:52:24.452Z,3.20
2023-02-15T03:54:52.764Z,3.40
2023-02-15T03:57:38.219Z,3.80
2023-02-15T04:00:34.917Z,2.80
2023-02-15T04:03:35.620Z,2.28
2023-02-15T04:06:03.922Z,3.75
2023-02-15T04:08:49.527Z,2.80
2023-02-15T04:11:16.314Z,2.17
2023-02-15T04:13:43.128Z,2.95
2023-02-15T04:16:10.572Z,3.33
2023-02-15T04:19:00.579Z,2.95
2023-02-15T04:21:49.426Z,3.30
2023-02-15T04:24:35.254Z,2.08
2023-02-15T04:27:04.081Z,2.20
2023-02-15T04:29:31.843Z,3.05
2023-02-15T04:32:00.768Z,2.30
2023-02-15T04:34:27.880Z,3.58
2023-02-15T04:36:54.731Z,2.65
2023-02-15T04:39:21.574Z,1.92
2023-02-15T04:41:48.917Z,2.20
2023-02-15T04:44:16.044Z,3.40
2023-02-15T04:46:42.879Z,3.42
2023-02-15T04:49:10.296Z,2.33
2023-02-15T04:51:37.479Z,3.55
2023-02-15T04:54:04.431Z,3.42
2023-02-15T04:56:32.171Z,2.40
2023-02-15T04:58:58.975Z,2.90
2023-02-15T05:01:25.814Z,1.98
2023-02-15T05:03:52.764Z,2.67
2023-02-15T05:06:19.658Z,3.10
2023-02-15T05:08:46.489Z,3.33
2023-02-15T05:11:13.381Z,2.15
2023-02-15T05:13:40.811Z,3.47
2023-02-15T05:16:07.688Z,2.42
2023-02-15T05:18:34.821Z,2.80
2023-02-15T05:21:01.654Z,1.83
2023-02-15T05:23:28.404Z,3.03
2023-02-15T05:26:13.767Z,2.03
2023-02-15T05:28:40.626Z,2.35
2023-02-15T05:31:11.615Z,2.05
2023-02-15T05:33:39.404Z,2.70
2023-02-15T05:36:07.289Z,2.22
2023-02-15T05:38:34.278Z,2.20
2023-02-15T05:41:01.304Z,2.30
2023-02-15T05:43:28.933Z,3.17
2023-02-15T05:45:56.137Z,3.25
2023-02-15T05:48:25.058Z,2.97
2023-02-15T05:51:01.539Z,1.73
2023-02-15T05:53:30.097Z,2.55
2023-02-15T05:56:00.531Z,3.30
2023-02-15T05:58:38.417Z,3.15
2023-02-15T06:01:18.148Z,2.60
2023-02-15T06:03:46.434Z,2.58
2023-02-15T06:06:13.391Z,2.28
2023-02-15T06:08:41.094Z,3.58
2023-02-15T06:11:08.385Z,3.10
2023-02-15T06:13:38.366Z,2.67
2023-02-15T06:16:06.606Z,2.13
2023-02-15T06:18:33.846Z,2.58
2023-02-15T06:21:00.648Z,6.22
2023-02-15T06:23:27.487Z,4.20
2023-02-15T06:25:55.021Z,2.63
2023-02-15T06:28:22.204Z,2.22
2023-02-15T06:30:49.000Z,3.10
2023-02-15T06:33:15.860Z,2.63
2023-02-15T06:35:42.761Z,1.92
2023-02-15T06:38:09.550Z,1.85
2023-02-15T06:40:37.539Z,3.67
2023-02-15T06:43:05.013Z,2.53
2023-02-15T06:45:31.827Z,2.58
2023-02-15T06:47:58.600Z,2.45
2023-02-15T06:50:25.451Z,2.55
2023-02-15T06:52:57.766Z,2.97
2023-02-15T06:55:24.751Z,2.85
2023-02-15T06:57:51.510Z,1.83
2023-02-15T07:00:19.284Z,3.38
2023-02-15T07:02:46.294Z,3.33
2023-02-15T07:05:13.194Z,3.80
2023-02-15T07:07:40.100Z,2.85
2023-02-15T07:10:07.658Z,3.30
2023-02-15T07:12:43.628Z,2.90
2023-02-15T07:15:12.124Z,1.65
2023-02-15T07:17:39.068Z,2.83
2023-02-15T07:20:11.975Z,2.90
2023-02-15T07:22:39.366Z,3.58
2023-02-15T07:25:08.172Z,2.95
2023-02-15T07:27:35.624Z,3.90
2023-02-15T07:30:03.313Z,2.65
2023-02-15T07:32:32.582Z,3.42
2023-02-15T07:35:00.241Z,3.78
2023-02-15T07:37:28.182Z,2.78
2023-02-15T07:39:54.984Z,2.42
2023-02-15T07:42:23.013Z,2.83
2023-02-15T07:44:50.127Z,1.92
2023-02-15T07:47:17.047Z,2.40
2023-02-15T07:49:43.842Z,2.08
2023-02-15T07:52:10.737Z,1.52
2023-02-15T07:54:37.498Z,2.75
2023-02-15T07:57:04.384Z,2.25
2023-02-15T07:59:31.201Z,1.92
2023-02-15T08:01:58.192Z,1.67
2023-02-15T08:04:25.446Z,1.45
2023-02-15T08:06:55.958Z,2.60
2023-02-15T08:09:23.038Z,2.00
2023-02-15T08:11:50.051Z,1.83
2023-02-15T08:14:19.522Z,1.52
2023-02-15T08:16:47.835Z,1.88
2023-02-15T08:19:19.048Z,2.10
2023-02-15T08:24:21.794Z,2.38
2023-02-15T08:26:49.862Z,1.77
2023-02-15T08:29:20.162Z,2.10
2023-02-15T08:31:48.828Z,1.98
2023-02-15T08:34:18.762Z,2.03
2023-02-15T08:36:46.356Z,1.60
2023-02-15T08:39:15.416Z,1.73
2023-02-15T08:41:47.740Z,2.28
2023-02-15T08:44:19.536Z,2.08
2023-02-15T08:46:47.880Z,2.70
2023-02-15T08:49:22.720Z,2.00
2023-02-15T08:51:50.206Z,1.65
2023-02-15T08:54:20.115Z,1.88
2023-02-15T08:56:47.377Z,3.42
2023-02-15T08:59:24.304Z,2.95
2023-02-15T09:01:52.645Z,3.53
2023-02-15T09:04:20.235Z,2.95
2023-02-15T09:06:49.402Z,2.45
2023-02-15T09:09:20.121Z,2.55
2023-02-15T09:11:52.397Z,1.95
2023-02-15T09:14:22.591Z,2.55
2023-02-15T09:16:51.980Z,1.95
2023-02-15T09:19:20.982Z,2.53
2023-02-15T09:21:48.208Z,2.72
2023-02-15T09:24:17.389Z,2.83
2023-02-15T09:26:46.060Z,1.90
2023-02-15T09:29:14.053Z,2.10
2023-02-15T09:31:47.288Z,1.08
2023-02-15T09:34:17.556Z,2.67
2023-02-15T09:36:45.561Z,2.58
2023-02-15T09:39:28.928Z,2.35
2023-02-15T09:42:01.671Z,2.35
2023-02-15T09:44:34.377Z,3.85
2023-02-15T09:47:13.454Z,3.25
2023-02-15T09:50:17.269Z,2.08
2023-02-15T09:53:21.609Z,2.05
2023-02-15T09:56:16.639Z,1.92
2023-02-15T09:58:52.339Z,1.67
2023-02-15T10:01:28.100Z,2.42
2023-02-15T10:04:15.408Z,2.53
2023-02-15T10:07:10.314Z,2.25
2023-02-15T10:09:49.192Z,2.60
2023-02-15T10:12:19.119Z,2.78
2023-02-15T10:15:10.240Z,3.17
2023-02-15T10:17:57.461Z,2.78
2023-02-15T10:20:36.318Z,2.63
2023-02-15T10:23:21.947Z,4.13
2023-02-15T10:25:54.995Z,3.03
2023-02-15T10:28:44.766Z,2.97
2023-02-15T10:31:23.907Z,3.35
2023-02-15T10:34:34.525Z,2.55
2023-02-15T10:37:37.143Z,2.95
2023-02-15T10:40:21.218Z,3.35
2023-02-15T10:42:51.123Z,3.67
2023-02-15T10:45:20.660Z,4.13
2023-02-15T10:48:09.607Z,3.40
2023-02-15T10:50:45.552Z,4.15
2023-02-15T10:53:12.397Z,3.55
2023-02-15T10:56:05.454Z,5.22
2023-02-15T10:59:16.914Z,3.00
2023-02-15T11:04:46.908Z,2.80
2023-02-15T11:07:17.166Z,3.17
2023-02-15T11:10:08.604Z,3.15
2023-02-15T11:12:35.583Z,3.30
2023-02-15T11:15:11.234Z,3.10
2023-02-15T11:17:44.392Z,3.60
2023-02-15T11:20:23.262Z,3.63
2023-02-15T11:22:54.150Z,3.78
2023-02-15T11:25:29.583Z,3.20
2023-02-15T11:27:57.273Z,3.53
2023-02-15T11:30:29.418Z,2.90
2023-02-15T11:32:59.764Z,3.85
2023-02-15T11:35:43.552Z,3.50
2023-02-15T11:38:19.710Z,4.40
2023-02-15T11:41:10.057Z,3.40
2023-02-15T11:43:51.014Z,3.87
2023-02-15T11:46:19.697Z,4.18
2023-02-15T11:48:46.546Z,4.03
2023-02-15T11:51:17.867Z,4.50
2023-02-15T11:53:46.564Z,5.18
2023-02-15T11:56:23.585Z,4.25
2023-02-15T11:58:59.412Z,5.97
2023-02-15T12:01:33.481Z,4.88
2023-02-15T12:04:26.230Z,4.97
2023-02-15T12:07:03.145Z,5.32
2023-02-15T12:09:41.754Z,6.00
2023-02-15T12:12:26.908Z,5.78
2023-02-15T12:14:56.704Z,5.80
2023-02-15T12:17:30.045Z,7.85
2023-02-15T12:20:00.976Z,5.28
2023-02-15T12:22:33.421Z,7.45
2023-02-15T12:25:03.291Z,5.70
2023-02-15T12:27:33.243Z,6.70
2023-02-15T12:30:12.469Z,5.82
2023-02-15T12:32:58.601Z,6.75
2023-02-15T12:35:37.373Z,6.47
2023-02-15T12:38:28.678Z,5.25
2023-02-15T12:41:20.507Z,7.25
2023-02-15T12:43:47.424Z,6.45
2023-02-15T12:46:24.359Z,5.45
2023-02-15T12:49:21.459Z,6.28
2023-02-15T12:52:03.865Z,6.28
2023-02-15T12:54:35.414Z,6.32
2023-02-15T12:57:26.389Z,6.57
2023-02-15T12:59:56.641Z,8.38
2023-02-15T13:02:43.144Z,7.65
2023-02-15T13:05:37.467Z,6.53
2023-02-15T13:08:17.732Z,6.72
2023-02-15T13:10:58.740Z,7.07
2023-02-15T13:13:35.492Z,6.63
2023-02-15T13:16:15.797Z,7.72
2023-02-15T13:18:47.753Z,6.40
2023-02-15T13:21:19.739Z,5.82
2023-02-15T13:23:50.475Z,6.95
2023-02-15T13:26:21.447Z,7.20
2023-02-15T13:28:51.605Z,7.43
2023-02-15T13:31:25.113Z,7.03
2023-02-15T13:33:55.454Z,8.80
2023-02-15T13:36:28.509Z,7.47
2023-02-15T13:39:16.458Z,7.22
2023-02-15T13:42:22.214Z,7.70
2023-02-15T13:45:26.557Z,6.50
2023-02-15T13:47:58.983Z,6.38
2023-02-15T13:50:47.047Z,5.22
2023-02-15T13:53:22.908Z,6.47
2023-02-15T13:55:54.522Z,7.18
2023-02-15T13:58:36.262Z,5.95
2023-02-15T14:01:16.187Z,6.47
2023-02-15T14:04:01.888Z,6.85
2023-02-15T14:06:45.693Z,7.30
2023-02-15T14:09:34.974Z,8.75
2023-02-15T14:12:24.033Z,5.50
2023-02-15T14:15:00.877Z,6.97
2023-02-15T14:17:56.414Z,7.25
2023-02-15T14:20:31.994Z,7.38
2023-02-15T14:23:29.099Z,7.88
2023-02-15T14:26:01.406Z,7.13
2023-02-15T14:29:03.309Z,7.78
2023-02-15T14:31:40.896Z,6.78
2023-02-15T14:34:38.448Z,6.35
2023-02-15T14:37:05.976Z,7.75
2023-02-15T14:40:23.281Z,7.78
2023-02-15T14:43:09.741Z,6.53
2023-02-15T14:46:07.190Z,8.45
2023-02-15T14:48:47.429Z,6.22
2023-02-15T14:51:48.716Z,7.15
2023-02-15T14:54:18.844Z,7.22
2023-02-15T14:56:48.139Z,7.30
2023-02-15T14:59:18.449Z,7.35
2023-02-15T15:02:10.684Z,9.65
2023-02-15T15:04:56.988Z,7.60
2023-02-15T15:07:37.559Z,8.77
2023-02-15T15:10:21.537Z,8.38
2023-02-15T15:12:50.082Z,7.30
2023-02-15T15:15:29.778Z,9.15
2023-02-15T15:18:09.483Z,7.72
2023-02-15T15:20:51.873Z,8.55
2023-02-15T15:23:19.558Z,6.97
2023-02-15T15:26:23.058Z,13.73
2023-02-15T15:28:51.360Z,8.32
2023-02-15T15:31:18.475Z,8.23
2023-02-15T15:34:11.493Z,8.05
2023-02-15T15:36:47.478Z,7.65
2023-02-15T15:39:24.152Z,7.10
2023-02-15T15:42:08.679Z,7.15
2023-02-15T15:45:05.156Z,7.75
2023-02-15T15:48:05.246Z,7.25
2023-02-15T15:50:35.348Z,7.63
2023-02-15T15:53:04.276Z,7.60
2023-02-15T15:55:34.668Z,8.10
2023-02-15T15:58:06.856Z,7.93
2023-02-15T16:00:55.995Z,8.57
2023-02-15T16:03:24.919Z,7.72
2023-02-15T16:05:56.077Z,7.03
2023-02-15T16:08:36.464Z,9.40
2023-02-15T16:11:15.396Z,7.63
2023-02-15T16:13:43.411Z,7.80
2023-02-15T16:16:14.133Z,7.43
2023-02-15T16:18:43.754Z,8.93
2023-02-15T16:21:23.689Z,8.57
2023-02-15T16:24:35.377Z,7.75
2023-02-15T16:27:21.012Z,8.20
2023-02-15T16:29:48.158Z,8.10
2023-02-15T16:32:27.100Z,7.72
2023-02-15T16:37:35.511Z,7.60
2023-02-15T16:40:02.952Z,7.05
2023-02-15T16:42:30.362Z,7.15
2023-02-15T16:45:28.058Z,7.93
2023-02-15T16:48:00.436Z,8.68
2023-02-15T16:50:38.102Z,8.93
2023-02-15T16:53:08.694Z,8.05
2023-02-15T16:55:43.609Z,8.32
2023-02-15T16:58:19.817Z,8.60
2023-02-15T17:00:52.987Z,7.93
2023-02-15T17:03:28.343Z,7.57
2023-02-15T17:05:59.590Z,8.57
2023-02-15T17:08:44.407Z,7.82
2023-02-15T17:11:23.561Z,8.20
2023-02-15T17:14:05.824Z,7.70
2023-02-15T17:16:49.990Z,7.32
2023-02-15T17:19:29.613Z,8.50
2023-02-15T17:21:59.962Z,9.40
2023-02-15T17:24:40.267Z,12.55
2023-02-15T17:27:22.056Z,15.40
2023-02-15T17:29:57.197Z,18.77
2023-02-15T17:32:27.289Z,18.63
2023-02-15T17:35:09.136Z,19.67
2023-02-15T17:37:38.720Z,18.00
2023-02-15T17:40:26.704Z,10.82
2023-02-15T17:42:54.506Z,10.98
2023-02-15T17:45:22.937Z,9.35
2023-02-15T17:47:50.517Z,9.38
2023-02-15T17:50:28.315Z,8.98
2023-02-15T17:52:57.524Z,9.18
2023-02-15T17:55:41.194Z,8.98
2023-02-15T17:58:09.316Z,7.35
2023-02-15T18:00:59.038Z,12.55
2023-02-15T18:03:53.354Z,11.57
2023-02-15T18:06:39.184Z,6.90
2023-02-15T18:09:25.179Z,7.22
2023-02-15T18:11:52.154Z,7.95
2023-02-15T18:14:19.000Z,8.98
2023-02-15T18:16:46.212Z,6.78
2023-02-15T18:19:22.745Z,9.13
2023-02-15T18:21:50.163Z,7.60
2023-02-15T18:24:19.960Z,7.47
2023-02-15T18:26:47.915Z,7.25
2023-02-15T18:29:14.755Z,7.55
2023-02-15T18:31:43.483Z,7.43
2023-02-15T18:34:21.032Z,8.60
2023-02-15T18:36:48.700Z,7.13
2023-02-15T18:39:40.799Z,9.13
2023-02-15T18:42:21.623Z,6.63
2023-02-15T18:44:49.983Z,8.43
2023-02-15T18:47:16.735Z,8.93
2023-02-15T18:49:43.674Z,7.47
2023-02-15T18:52:17.464Z,14.18
2023-02-15T18:54:46.122Z,22.25
2023-02-15T18:57:14.625Z,18.38
2023-02-15T18:59:41.526Z,10.27
2023-02-15T19:02:19.102Z,9.48
2023-02-15T19:04:49.221Z,10.77
2023-02-15T19:07:26.450Z,10.52
2023-02-15T19:09:57.131Z,8.77
2023-02-15T19:12:27.213Z,9.60
2023-02-15T19:14:55.897Z,8.07
2023-02-15T19:17:24.943Z,9.68
2023-02-15T19:19:52.891Z,8.95
2023-02-15T19:22:31.289Z,9.18
2023-02-15T19:25:01.176Z,7.97
2023-02-15T19:27:35.095Z,8.05
2023-02-15T19:30:19.956Z,7.78
2023-02-15T19:32:47.322Z,7.15
2023-02-15T19:35:22.476Z,10.48
2023-02-15T19:37:52.574Z,31.00
2023-02-15T19:40:29.616Z,25.20
2023-02-15T19:42:56.732Z,17.13
2023-02-15T19:45:26.632Z,13.40
2023-02-15T19:47:55.067Z,11.15
2023-02-15T19:50:28.404Z,10.23
2023-02-15T19:52:56.042Z,8.40
2023-02-15T19:55:28.905Z,8.57
2023-02-15T19:57:57.830Z,7.90
2023-02-15T20:00:30.293Z,8.60
2023-02-15T20:02:59.394Z,8.20
2023-02-15T20:05:28.278Z,7.07
2023-02-15T20:07:55.900Z,7.80
2023-02-15T20:10:31.009Z,6.00
2023-02-15T20:12:58.465Z,7.40
2023-02-15T20:15:34.700Z,8.52
2023-02-15T20:18:04.033Z,7.70
2023-02-15T20:20:39.747Z,7.55
2023-02-15T20:23:07.122Z,6.72
2023-02-15T20:25:34.138Z,7.63
2023-02-15T20:28:01.627Z,7.50
2023-02-15T20:30:32.569Z,5.78
2023-02-15T20:35:28.835Z,7.00
2023-02-15T20:38:02.732Z,7.93
2023-02-15T20:40:32.732Z,7.38
2023-02-15T20:43:00.915Z,7.75
2023-02-15T20:45:33.004Z,7.28
2023-02-15T20:48:01.891Z,6.63
2023-02-15T20:50:32.207Z,7.03
2023-02-15T20:53:02.960Z,7.38
2023-02-15T20:55:32.024Z,7.28
2023-02-15T20:57:59.659Z,8.50
2023-02-15T21:00:29.148Z,6.88
2023-02-15T21:02:59.209Z,9.68
2023-02-15T21:05:30.155Z,7.28
2023-02-15T21:07:57.375Z,7.10
2023-02-15T21:10:34.895Z,7.43
2023-02-15T21:13:03.284Z,8.85
2023-02-15T21:15:34.576Z,8.00
2023-02-15T21:18:05.448Z,7.65
2023-02-15T21:23:04.252Z,8.23
2023-02-15T21:25:34.942Z,7.40
2023-02-15T21:28:02.050Z,7.20
2023-02-15T21:30:29.285Z,8.40
2023-02-15T21:32:56.090Z,7.60
2023-02-15T21:35:23.126Z,8.00
2023-02-15T21:37:51.956Z,8.10
2023-02-15T21:40:26.367Z,8.15
2023-02-15T21:43:11.725Z,8.48
2023-02-15T21:45:57.260Z,7.65
2023-02-15T21:48:24.180Z,8.05
2023-02-15T21:51:09.597Z,8.05
2023-02-15T21:53:45.980Z,7.13
2023-02-15T21:56:16.109Z,8.13
2023-02-15T21:58:43.298Z,8.73
2023-02-15T22:01:28.981Z,7.78
2023-02-15T22:03:58.880Z,8.13
2023-02-15T22:06:25.811Z,7.03
2023-02-15T22:08:52.654Z,7.45
2023-02-15T22:11:22.531Z,7.20
2023-02-15T22:13:50.492Z,8.50
2023-02-15T22:16:19.882Z,7.95
2023-02-15T22:18:48.001Z,8.32
2023-02-15T22:21:19.175Z,7.07
2023-02-15T22:23:47.050Z,7.47
2023-02-15T22:26:20.750Z,7.90
2023-02-15T22:28:47.900Z,8.13
2023-02-15T22:31:19.411Z,7.43
2023-02-15T22:33:46.369Z,8.05
2023-02-15T22:36:28.749Z,9.20
2023-02-15T22:38:56.788Z,8.93
2023-02-15T22:41:28.204Z,8.60
2023-02-15T22:43:56.073Z,9.35
2023-02-15T22:46:25.074Z,6.32
2023-02-15T22:48:52.213Z,8.68
2023-02-15T22:51:24.619Z,8.70
2023-02-15T22:53:53.189Z,8.23
2023-02-15T22:56:31.352Z,8.48
2023-02-15T22:59:02.716Z,8.18
2023-02-15T23:01:32.767Z,7.38
2023-02-15T23:04:02.822Z,9.40
2023-02-15T23:06:30.472Z,8.15
2023-02-15T23:08:57.350Z,8.68
2023-02-15T23:11:24.244Z,5.30
2023-02-15T23:13:51.137Z,8.52
2023-02-15T23:16:18.703Z,7.43
2023-02-15T23:18:46.930Z,8.23
2023-02-15T23:21:33.946Z,8.15
2023-02-15T23:24:27.530Z,8.38
2023-02-15T23:26:54.753Z,8.48
2023-02-15T23:29:24.061Z,7.68
2023-02-15T23:31:53.237Z,6.75
2023-02-15T23:34:24.804Z,7.53
2023-02-15T23:36:51.720Z,8.15
2023-02-15T23:39:46.349Z,8.88
2023-02-15T23:42:14.832Z,6.20
2023-02-15T23:44:43.689Z,7.53
2023-02-15T23:47:53.683Z,8.07
2023-02-15T23:50:25.346Z,6.18
2023-02-15T23:52:53.914Z,6.47
2023-02-15T23:55:21.610Z,7.80
2023-02-15T23:57:49.442Z,7.03
